sensor_id;sensor_type;location;lat;lon;timestamp;P1;durP1;ratioP1;P2;durP2;ratioP2
34805;SDS011;65084;42.196;25.326;2023-09-19T00:00:26;5.75;;;3.88;;
34805;SDS011;65084;42.196;25.326;2023-09-19T00:02:54;6.55;;;3.70;;
34805;SDS011;65084;42.196;25.326;2023-09-19T00:05:25;4.88;;;3.47;;
34805;SDS011;65084;42.196;25.326;2023-09-19T00:07:53;5.80;;;3.97;;
34805;SDS011;65084;42.196;25.326;2023-09-19T00:10:20;5.63;;;3.88;;
34805;SDS011;65084;42.196;25.326;2023-09-19T00:12:49;9.85;;;3.95;;
34805;SDS011;65084;42.196;25.326;2023-09-19T00:15:18;4.35;;;3.90;;
34805;SDS011;65084;42.196;25.326;2023-09-19T00:17:46;5.00;;;3.42;;
34805;SDS011;65084;42.196;25.326;2023-09-19T00:20:14;7.70;;;3.88;;
34805;SDS011;65084;42.196;25.326;2023-09-19T00:22:42;5.85;;;3.58;;
34805;SDS011;65084;42.196;25.326;2023-09-19T00:25:10;3.72;;;3.42;;
34805;SDS011;65084;42.196;25.326;2023-09-19T00:27:40;3.88;;;3.50;;
34805;SDS011;65084;42.196;25.326;2023-09-19T00:30:10;4.07;;;3.70;;
34805;SDS011;65084;42.196;25.326;2023-09-19T00:32:41;3.67;;;3.28;;
34805;SDS011;65084;42.196;25.326;2023-09-19T00:35:09;6.95;;;3.63;;
34805;SDS011;65084;42.196;25.326;2023-09-19T00:37:37;7.15;;;3.67;;
34805;SDS011;65084;42.196;25.326;2023-09-19T00:40:06;3.80;;;3.47;;
34805;SDS011;65084;42.196;25.326;2023-09-19T00:42:36;4.13;;;3.40;;
34805;SDS011;65084;42.196;25.326;2023-09-19T00:45:04;5.65;;;4.30;;
34805;SDS011;65084;42.196;25.326;2023-09-19T00:47:31;4.95;;;3.72;;
34805;SDS011;65084;42.196;25.326;2023-09-19T00:49:59;3.72;;;3.42;;
34805;SDS011;65084;42.196;25.326;2023-09-19T00:52:29;4.28;;;3.53;;
34805;SDS011;65084;42.196;25.326;2023-09-19T00:54:58;6.43;;;3.90;;
34805;SDS011;65084;42.196;25.326;2023-09-19T00:57:26;4.63;;;3.90;;
34805;SDS011;65084;42.196;25.326;2023-09-19T00:59:54;4.65;;;3.88;;
34805;SDS011;65084;42.196;25.326;2023-09-19T01:02:22;3.80;;;3.50;;
34805;SDS011;65084;42.196;25.326;2023-09-19T01:04:49;5.47;;;3.88;;
34805;SDS011;65084;42.196;25.326;2023-09-19T01:07:17;6.07;;;3.47;;
34805;SDS011;65084;42.196;25.326;2023-09-19T01:09:45;4.30;;;3.85;;
34805;SDS011;65084;42.196;25.326;2023-09-19T01:12:13;4.47;;;3.50;;
34805;SDS011;65084;42.196;25.326;2023-09-19T01:14:46;5.10;;;3.42;;
34805;SDS011;65084;42.196;25.326;2023-09-19T01:17:19;7.32;;;3.90;;
34805;SDS011;65084;42.196;25.326;2023-09-19T01:20:09;5.82;;;4.05;;
34805;SDS011;65084;42.196;25.326;2023-09-19T01:22:42;4.05;;;3.35;;
34805;SDS011;65084;42.196;25.326;2023-09-19T01:25:26;7.55;;;3.60;;
34805;SDS011;65084;42.196;25.326;2023-09-19T01:28:06;6.07;;;3.88;;
34805;SDS011;65084;42.196;25.326;2023-09-19T01:30:43;3.50;;;3.20;;
34805;SDS011;65084;42.196;25.326;2023-09-19T01:33:10;5.57;;;4.00;;
34805;SDS011;65084;42.196;25.326;2023-09-19T01:35:39;5.28;;;3.58;;
34805;SDS011;65084;42.196;25.326;2023-09-19T01:38:06;4.60;;;3.40;;
34805;SDS011;65084;42.196;25.326;2023-09-19T01:40:38;8.02;;;4.15;;
34805;SDS011;65084;42.196;25.326;2023-09-19T01:43:08;4.35;;;3.80;;
34805;SDS011;65084;42.196;25.326;2023-09-19T01:45:37;4.57;;;4.18;;
34805;SDS011;65084;42.196;25.326;2023-09-19T01:48:13;3.95;;;3.65;;
34805;SDS011;65084;42.196;25.326;2023-09-19T01:50:44;7.53;;;4.07;;
34805;SDS011;65084;42.196;25.326;2023-09-19T01:53:15;4.68;;;3.88;;
34805;SDS011;65084;42.196;25.326;2023-09-19T01:55:47;6.70;;;4.70;;
34805;SDS011;65084;42.196;25.326;2023-09-19T01:58:16;7.45;;;3.67;;
34805;SDS011;65084;42.196;25.326;2023-09-19T02:00:46;5.97;;;4.18;;
34805;SDS011;65084;42.196;25.326;2023-09-19T02:03:18;8.05;;;4.15;;
34805;SDS011;65084;42.196;25.326;2023-09-19T02:05:48;7.50;;;3.85;;
34805;SDS011;65084;42.196;25.326;2023-09-19T02:08:16;5.05;;;4.43;;
34805;SDS011;65084;42.196;25.326;2023-09-19T02:10:44;4.60;;;4.20;;
34805;SDS011;65084;42.196;25.326;2023-09-19T02:13:14;9.50;;;3.80;;
34805;SDS011;65084;42.196;25.326;2023-09-19T02:15:42;8.38;;;4.45;;
34805;SDS011;65084;42.196;25.326;2023-09-19T02:18:10;7.00;;;4.63;;
34805;SDS011;65084;42.196;25.326;2023-09-19T02:20:39;6.32;;;4.25;;
34805;SDS011;65084;42.196;25.326;2023-09-19T02:23:06;5.05;;;4.63;;
34805;SDS011;65084;42.196;25.326;2023-09-19T02:25:34;7.95;;;4.03;;
34805;SDS011;65084;42.196;25.326;2023-09-19T02:28:03;8.57;;;3.97;;
34805;SDS011;65084;42.196;25.326;2023-09-19T02:30:30;4.95;;;3.80;;
34805;SDS011;65084;42.196;25.326;2023-09-19T02:32:58;4.90;;;4.10;;
34805;SDS011;65084;42.196;25.326;2023-09-19T02:35:26;6.43;;;4.97;;
34805;SDS011;65084;42.196;25.326;2023-09-19T02:37:59;9.05;;;4.97;;
34805;SDS011;65084;42.196;25.326;2023-09-19T02:40:27;6.80;;;4.75;;
34805;SDS011;65084;42.196;25.326;2023-09-19T02:42:55;5.20;;;4.80;;
34805;SDS011;65084;42.196;25.326;2023-09-19T02:45:24;8.25;;;4.55;;
34805;SDS011;65084;42.196;25.326;2023-09-19T02:47:52;5.28;;;4.88;;
34805;SDS011;65084;42.196;25.326;2023-09-19T02:50:20;6.50;;;4.40;;
34805;SDS011;65084;42.196;25.326;2023-09-19T02:52:47;7.57;;;4.70;;
34805;SDS011;65084;42.196;25.326;2023-09-19T02:55:17;4.25;;;3.95;;
34805;SDS011;65084;42.196;25.326;2023-09-19T02:57:47;4.95;;;4.47;;
34805;SDS011;65084;42.196;25.326;2023-09-19T03:00:15;5.00;;;4.57;;
34805;SDS011;65084;42.196;25.326;2023-09-19T03:02:46;8.88;;;4.35;;
34805;SDS011;65084;42.196;25.326;2023-09-19T03:05:14;5.82;;;4.30;;
34805;SDS011;65084;42.196;25.326;2023-09-19T03:07:41;4.38;;;3.97;;
34805;SDS011;65084;42.196;25.326;2023-09-19T03:10:11;7.53;;;4.13;;
34805;SDS011;65084;42.196;25.326;2023-09-19T03:12:42;4.68;;;3.90;;
34805;SDS011;65084;42.196;25.326;2023-09-19T03:15:10;9.10;;;4.60;;
34805;SDS011;65084;42.196;25.326;2023-09-19T03:17:37;7.70;;;4.43;;
34805;SDS011;65084;42.196;25.326;2023-09-19T03:20:04;5.90;;;5.28;;
34805;SDS011;65084;42.196;25.326;2023-09-19T03:22:34;9.25;;;4.90;;
34805;SDS011;65084;42.196;25.326;2023-09-19T03:25:01;4.63;;;4.22;;
34805;SDS011;65084;42.196;25.326;2023-09-19T03:27:33;7.60;;;4.03;;
34805;SDS011;65084;42.196;25.326;2023-09-19T03:30:01;5.97;;;4.15;;
34805;SDS011;65084;42.196;25.326;2023-09-19T03:32:33;12.57;;;4.57;;
34805;SDS011;65084;42.196;25.326;2023-09-19T03:35:00;14.00;;;4.72;;
34805;SDS011;65084;42.196;25.326;2023-09-19T03:37:30;9.77;;;4.50;;
34805;SDS011;65084;42.196;25.326;2023-09-19T03:39:58;10.10;;;4.43;;
34805;SDS011;65084;42.196;25.326;2023-09-19T03:42:29;18.67;;;5.07;;
34805;SDS011;65084;42.196;25.326;2023-09-19T03:44:57;12.32;;;5.18;;
34805;SDS011;65084;42.196;25.326;2023-09-19T03:47:26;8.10;;;4.63;;
34805;SDS011;65084;42.196;25.326;2023-09-19T03:49:53;27.02;;;5.07;;
34805;SDS011;65084;42.196;25.326;2023-09-19T03:52:21;31.67;;;5.63;;
34805;SDS011;65084;42.196;25.326;2023-09-19T03:54:48;5.78;;;4.30;;
34805;SDS011;65084;42.196;25.326;2023-09-19T03:57:15;32.60;;;5.55;;
34805;SDS011;65084;42.196;25.326;2023-09-19T03:59:45;12.02;;;4.60;;
34805;SDS011;65084;42.196;25.326;2023-09-19T04:02:13;9.23;;;3.97;;
34805;SDS011;65084;42.196;25.326;2023-09-19T04:04:48;6.35;;;4.78;;
34805;SDS011;65084;42.196;25.326;2023-09-19T04:07:16;12.23;;;4.25;;
34805;SDS011;65084;42.196;25.326;2023-09-19T04:09:44;8.70;;;3.53;;
34805;SDS011;65084;42.196;25.326;2023-09-19T04:12:11;16.80;;;4.63;;
34805;SDS011;65084;42.196;25.326;2023-09-19T04:14:41;12.00;;;4.15;;
34805;SDS011;65084;42.196;25.326;2023-09-19T04:17:09;14.57;;;4.15;;
34805;SDS011;65084;42.196;25.326;2023-09-19T04:19:36;7.30;;;4.35;;
34805;SDS011;65084;42.196;25.326;2023-09-19T04:22:05;4.45;;;3.90;;
34805;SDS011;65084;42.196;25.326;2023-09-19T04:24:32;4.07;;;3.70;;
34805;SDS011;65084;42.196;25.326;2023-09-19T04:27:00;8.25;;;4.50;;
34805;SDS011;65084;42.196;25.326;2023-09-19T04:29:28;11.77;;;4.47;;
34805;SDS011;65084;42.196;25.326;2023-09-19T04:31:55;21.63;;;4.85;;
34805;SDS011;65084;42.196;25.326;2023-09-19T04:34:22;98.38;;;8.45;;
34805;SDS011;65084;42.196;25.326;2023-09-19T04:36:50;64.25;;;7.07;;
34805;SDS011;65084;42.196;25.326;2023-09-19T04:39:19;12.18;;;6.00;;
34805;SDS011;65084;42.196;25.326;2023-09-19T04:41:51;7.95;;;6.47;;
34805;SDS011;65084;42.196;25.326;2023-09-19T04:44:18;6.47;;;5.88;;
34805;SDS011;65084;42.196;25.326;2023-09-19T04:46:46;7.90;;;6.50;;
34805;SDS011;65084;42.196;25.326;2023-09-19T04:49:13;6.70;;;5.50;;
34805;SDS011;65084;42.196;25.326;2023-09-19T04:51:40;6.15;;;5.28;;
34805;SDS011;65084;42.196;25.326;2023-09-19T04:54:08;5.45;;;4.68;;
34805;SDS011;65084;42.196;25.326;2023-09-19T04:56:37;7.18;;;4.70;;
34805;SDS011;65084;42.196;25.326;2023-09-19T04:59:05;6.07;;;4.43;;
34805;SDS011;65084;42.196;25.326;2023-09-19T05:01:32;15.32;;;4.80;;
34805;SDS011;65084;42.196;25.326;2023-09-19T05:04:00;12.43;;;4.85;;
34805;SDS011;65084;42.196;25.326;2023-09-19T05:06:30;7.03;;;5.38;;
34805;SDS011;65084;42.196;25.326;2023-09-19T05:08:58;8.77;;;6.13;;
34805;SDS011;65084;42.196;25.326;2023-09-19T05:11:25;7.38;;;6.25;;
34805;SDS011;65084;42.196;25.326;2023-09-19T05:13:56;6.38;;;5.75;;
34805;SDS011;65084;42.196;25.326;2023-09-19T05:16:28;6.40;;;5.80;;
34805;SDS011;65084;42.196;25.326;2023-09-19T05:18:56;13.77;;;6.32;;
34805;SDS011;65084;42.196;25.326;2023-09-19T05:21:25;9.07;;;5.50;;
34805;SDS011;65084;42.196;25.326;2023-09-19T05:23:53;5.50;;;4.90;;
34805;SDS011;65084;42.196;25.326;2023-09-19T05:26:21;6.65;;;4.75;;
34805;SDS011;65084;42.196;25.326;2023-09-19T05:28:48;12.40;;;5.25;;
34805;SDS011;65084;42.196;25.326;2023-09-19T05:31:17;7.50;;;4.88;;
34805;SDS011;65084;42.196;25.326;2023-09-19T05:33:44;6.18;;;4.78;;
34805;SDS011;65084;42.196;25.326;2023-09-19T05:36:11;6.25;;;4.75;;
34805;SDS011;65084;42.196;25.326;2023-09-19T05:38:41;13.30;;;4.75;;
34805;SDS011;65084;42.196;25.326;2023-09-19T05:41:09;5.20;;;4.50;;
34805;SDS011;65084;42.196;25.326;2023-09-19T05:43:38;11.35;;;4.30;;
34805;SDS011;65084;42.196;25.326;2023-09-19T05:46:06;8.10;;;3.70;;
34805;SDS011;65084;42.196;25.326;2023-09-19T05:48:34;5.10;;;3.58;;
34805;SDS011;65084;42.196;25.326;2023-09-19T05:51:04;6.05;;;4.63;;
34805;SDS011;65084;42.196;25.326;2023-09-19T05:53:32;10.75;;;5.05;;
34805;SDS011;65084;42.196;25.326;2023-09-19T05:55:59;6.65;;;4.80;;
34805;SDS011;65084;42.196;25.326;2023-09-19T05:58:26;10.65;;;4.70;;
34805;SDS011;65084;42.196;25.326;2023-09-19T06:00:53;7.82;;;4.80;;
34805;SDS011;65084;42.196;25.326;2023-09-19T06:03:21;7.60;;;4.38;;
34805;SDS011;65084;42.196;25.326;2023-09-19T06:05:50;7.45;;;4.63;;
34805;SDS011;65084;42.196;25.326;2023-09-19T06:08:18;13.32;;;5.75;;
34805;SDS011;65084;42.196;25.326;2023-09-19T06:10:46;5.25;;;4.10;;
34805;SDS011;65084;42.196;25.326;2023-09-19T06:13:14;5.32;;;4.82;;
34805;SDS011;65084;42.196;25.326;2023-09-19T06:15:41;9.30;;;5.25;;
34805;SDS011;65084;42.196;25.326;2023-09-19T06:18:10;6.22;;;5.05;;
34805;SDS011;65084;42.196;25.326;2023-09-19T06:20:40;5.53;;;4.22;;
34805;SDS011;65084;42.196;25.326;2023-09-19T06:23:11;4.43;;;3.92;;
34805;SDS011;65084;42.196;25.326;2023-09-19T06:25:38;5.00;;;4.50;;
34805;SDS011;65084;42.196;25.326;2023-09-19T06:28:05;5.53;;;4.63;;
34805;SDS011;65084;42.196;25.326;2023-09-19T06:30:35;6.90;;;4.63;;
34805;SDS011;65084;42.196;25.326;2023-09-19T06:33:05;5.50;;;4.70;;
34805;SDS011;65084;42.196;25.326;2023-09-19T06:35:33;6.93;;;4.53;;
34805;SDS011;65084;42.196;25.326;2023-09-19T06:38:01;7.75;;;4.57;;
34805;SDS011;65084;42.196;25.326;2023-09-19T06:40:30;7.95;;;4.90;;
34805;SDS011;65084;42.196;25.326;2023-09-19T06:42:59;7.55;;;4.90;;
34805;SDS011;65084;42.196;25.326;2023-09-19T06:45:27;8.95;;;5.15;;
34805;SDS011;65084;42.196;25.326;2023-09-19T06:47:54;7.35;;;5.00;;
34805;SDS011;65084;42.196;25.326;2023-09-19T06:50:23;7.40;;;5.28;;
34805;SDS011;65084;42.196;25.326;2023-09-19T06:52:50;7.53;;;4.90;;
34805;SDS011;65084;42.196;25.326;2023-09-19T06:55:19;9.38;;;4.72;;
34805;SDS011;65084;42.196;25.326;2023-09-19T06:57:48;4.80;;;4.40;;
34805;SDS011;65084;42.196;25.326;2023-09-19T07:00:15;6.78;;;4.95;;
34805;SDS011;65084;42.196;25.326;2023-09-19T07:02:43;7.50;;;5.20;;
34805;SDS011;65084;42.196;25.326;2023-09-19T07:05:11;6.45;;;4.68;;
34805;SDS011;65084;42.196;25.326;2023-09-19T07:07:38;5.47;;;4.97;;
34805;SDS011;65084;42.196;25.326;2023-09-19T07:10:06;6.28;;;4.53;;
34805;SDS011;65084;42.196;25.326;2023-09-19T07:12:36;5.20;;;4.70;;
34805;SDS011;65084;42.196;25.326;2023-09-19T07:15:05;5.05;;;4.55;;
34805;SDS011;65084;42.196;25.326;2023-09-19T07:17:33;4.93;;;4.50;;
34805;SDS011;65084;42.196;25.326;2023-09-19T07:20:01;7.28;;;4.65;;
34805;SDS011;65084;42.196;25.326;2023-09-19T07:22:34;4.82;;;4.32;;
34805;SDS011;65084;42.196;25.326;2023-09-19T07:25:01;5.53;;;3.97;;
34805;SDS011;65084;42.196;25.326;2023-09-19T07:27:28;5.00;;;4.50;;
34805;SDS011;65084;42.196;25.326;2023-09-19T07:29:55;6.03;;;4.35;;
34805;SDS011;65084;42.196;25.326;2023-09-19T07:32:25;5.18;;;4.63;;
34805;SDS011;65084;42.196;25.326;2023-09-19T07:34:52;6.55;;;4.30;;
34805;SDS011;65084;42.196;25.326;2023-09-19T07:37:20;10.68;;;4.32;;
34805;SDS011;65084;42.196;25.326;2023-09-19T07:39:50;4.28;;;3.90;;
34805;SDS011;65084;42.196;25.326;2023-09-19T07:42:18;6.88;;;4.10;;
34805;SDS011;65084;42.196;25.326;2023-09-19T07:44:45;6.63;;;4.45;;
34805;SDS011;65084;42.196;25.326;2023-09-19T07:47:15;5.93;;;3.80;;
34805;SDS011;65084;42.196;25.326;2023-09-19T07:49:46;7.03;;;4.20;;
34805;SDS011;65084;42.196;25.326;2023-09-19T07:52:13;4.68;;;4.10;;
34805;SDS011;65084;42.196;25.326;2023-09-19T07:54:40;4.90;;;4.00;;
34805;SDS011;65084;42.196;25.326;2023-09-19T07:57:09;4.97;;;3.78;;
34805;SDS011;65084;42.196;25.326;2023-09-19T07:59:37;4.30;;;3.90;;
34805;SDS011;65084;42.196;25.326;2023-09-19T08:02:07;5.97;;;3.67;;
34805;SDS011;65084;42.196;25.326;2023-09-19T08:04:42;6.65;;;4.32;;
34805;SDS011;65084;42.196;25.326;2023-09-19T08:07:12;4.45;;;4.13;;
34805;SDS011;65084;42.196;25.326;2023-09-19T08:09:40;5.43;;;3.85;;
34805;SDS011;65084;42.196;25.326;2023-09-19T08:12:11;5.35;;;3.75;;
34805;SDS011;65084;42.196;25.326;2023-09-19T08:14:40;4.10;;;3.70;;
34805;SDS011;65084;42.196;25.326;2023-09-19T08:17:07;6.72;;;4.68;;
34805;SDS011;65084;42.196;25.326;2023-09-19T08:19:35;8.32;;;4.05;;
34805;SDS011;65084;42.196;25.326;2023-09-19T08:22:05;4.95;;;3.97;;
34805;SDS011;65084;42.196;25.326;2023-09-19T08:24:36;4.68;;;3.75;;
34805;SDS011;65084;42.196;25.326;2023-09-19T08:27:04;16.75;;;4.18;;
34805;SDS011;65084;42.196;25.326;2023-09-19T08:29:34;3.92;;;3.28;;
34805;SDS011;65084;42.196;25.326;2023-09-19T08:32:02;3.83;;;3.42;;
34805;SDS011;65084;42.196;25.326;2023-09-19T08:34:30;8.20;;;2.85;;
34805;SDS011;65084;42.196;25.326;2023-09-19T08:36:59;5.03;;;3.40;;
34805;SDS011;65084;42.196;25.326;2023-09-19T08:39:26;3.25;;;2.95;;
34805;SDS011;65084;42.196;25.326;2023-09-19T08:42:00;15.13;;;3.60;;
34805;SDS011;65084;42.196;25.326;2023-09-19T08:44:29;4.82;;;4.15;;
34805;SDS011;65084;42.196;25.326;2023-09-19T08:47:06;3.70;;;3.35;;
34805;SDS011;65084;42.196;25.326;2023-09-19T08:49:36;4.68;;;3.15;;
34805;SDS011;65084;42.196;25.326;2023-09-19T08:52:07;6.47;;;3.22;;
34805;SDS011;65084;42.196;25.326;2023-09-19T08:54:37;4.50;;;2.83;;
34805;SDS011;65084;42.196;25.326;2023-09-19T08:57:07;2.97;;;2.70;;
34805;SDS011;65084;42.196;25.326;2023-09-19T08:59:36;3.88;;;3.47;;
34805;SDS011;65084;42.196;25.326;2023-09-19T09:02:07;3.63;;;3.17;;
34805;SDS011;65084;42.196;25.326;2023-09-19T09:04:37;4.00;;;3.10;;
34805;SDS011;65084;42.196;25.326;2023-09-19T09:07:06;4.03;;;3.05;;
34805;SDS011;65084;42.196;25.326;2023-09-19T09:09:33;2.85;;;2.65;;
34805;SDS011;65084;42.196;25.326;2023-09-19T09:12:01;7.15;;;3.58;;
34805;SDS011;65084;42.196;25.326;2023-09-19T09:14:30;3.42;;;2.88;;
34805;SDS011;65084;42.196;25.326;2023-09-19T09:16:59;7.07;;;3.22;;
34805;SDS011;65084;42.196;25.326;2023-09-19T09:19:27;15.45;;;3.13;;
34805;SDS011;65084;42.196;25.326;2023-09-19T09:22:05;4.57;;;2.70;;
34805;SDS011;65084;42.196;25.326;2023-09-19T09:24:32;4.85;;;3.03;;
34805;SDS011;65084;42.196;25.326;2023-09-19T09:27:03;3.65;;;3.15;;
34805;SDS011;65084;42.196;25.326;2023-09-19T09:29:41;3.00;;;2.78;;
34805;SDS011;65084;42.196;25.326;2023-09-19T09:32:22;4.00;;;2.97;;
34805;SDS011;65084;42.196;25.326;2023-09-19T09:34:50;3.30;;;2.90;;
34805;SDS011;65084;42.196;25.326;2023-09-19T09:37:18;3.90;;;2.63;;
34805;SDS011;65084;42.196;25.326;2023-09-19T09:39:49;3.15;;;2.85;;
34805;SDS011;65084;42.196;25.326;2023-09-19T09:45:15;6.90;;;3.07;;
34805;SDS011;65084;42.196;25.326;2023-09-19T09:47:46;4.32;;;2.60;;
34805;SDS011;65084;42.196;25.326;2023-09-19T09:50:26;2.95;;;2.75;;
34805;SDS011;65084;42.196;25.326;2023-09-19T09:53:05;5.07;;;2.53;;
34805;SDS011;65084;42.196;25.326;2023-09-19T09:55:59;5.75;;;2.80;;
34805;SDS011;65084;42.196;25.326;2023-09-19T09:58:27;3.72;;;3.00;;
34805;SDS011;65084;42.196;25.326;2023-09-19T10:00:58;5.85;;;2.95;;
34805;SDS011;65084;42.196;25.326;2023-09-19T10:03:32;4.20;;;3.25;;
34805;SDS011;65084;42.196;25.326;2023-09-19T10:06:03;3.15;;;2.85;;
34805;SDS011;65084;42.196;25.326;2023-09-19T10:08:57;2.70;;;2.50;;
34805;SDS011;65084;42.196;25.326;2023-09-19T10:11:29;4.50;;;2.55;;
34805;SDS011;65084;42.196;25.326;2023-09-19T10:13:57;5.07;;;2.85;;
34805;SDS011;65084;42.196;25.326;2023-09-19T10:16:27;5.43;;;3.00;;
34805;SDS011;65084;42.196;25.326;2023-09-19T10:18:57;3.22;;;2.65;;
34805;SDS011;65084;42.196;25.326;2023-09-19T10:21:25;7.22;;;2.85;;
34805;SDS011;65084;42.196;25.326;2023-09-19T10:23:55;2.83;;;2.63;;
34805;SDS011;65084;42.196;25.326;2023-09-19T10:26:24;8.35;;;2.60;;
34805;SDS011;65084;42.196;25.326;2023-09-19T10:28:54;4.43;;;2.83;;
34805;SDS011;65084;42.196;25.326;2023-09-19T10:31:22;3.00;;;2.58;;
34805;SDS011;65084;42.196;25.326;2023-09-19T10:33:52;3.05;;;2.85;;
34805;SDS011;65084;42.196;25.326;2023-09-19T10:36:20;4.35;;;3.05;;
34805;SDS011;65084;42.196;25.326;2023-09-19T10:38:50;3.33;;;3.03;;
34805;SDS011;65084;42.196;25.326;2023-09-19T10:41:20;4.50;;;2.65;;
34805;SDS011;65084;42.196;25.326;2023-09-19T10:43:48;6.57;;;3.17;;
34805;SDS011;65084;42.196;25.326;2023-09-19T10:46:19;5.10;;;2.83;;
34805;SDS011;65084;42.196;25.326;2023-09-19T10:48:46;2.70;;;2.50;;
34805;SDS011;65084;42.196;25.326;2023-09-19T10:51:17;3.10;;;2.60;;
34805;SDS011;65084;42.196;25.326;2023-09-19T10:53:49;3.70;;;2.78;;
34805;SDS011;65084;42.196;25.326;2023-09-19T10:56:19;3.90;;;2.92;;
34805;SDS011;65084;42.196;25.326;2023-09-19T10:58:47;4.97;;;2.58;;
34805;SDS011;65084;42.196;25.326;2023-09-19T11:01:16;8.98;;;3.15;;
34805;SDS011;65084;42.196;25.326;2023-09-19T11:03:45;4.35;;;2.40;;
34805;SDS011;65084;42.196;25.326;2023-09-19T11:06:15;6.25;;;2.20;;
34805;SDS011;65084;42.196;25.326;2023-09-19T11:09:01;2.92;;;2.60;;
34805;SDS011;65084;42.196;25.326;2023-09-19T11:11:48;5.65;;;2.47;;
34805;SDS011;65084;42.196;25.326;2023-09-19T11:14:41;4.82;;;2.70;;
34805;SDS011;65084;42.196;25.326;2023-09-19T11:25:43;4.50;;;2.47;;
34805;SDS011;65084;42.196;25.326;2023-09-19T11:33:49;4.40;;;2.40;;
34805;SDS011;65084;42.196;25.326;2023-09-19T11:36:36;4.63;;;2.67;;
34805;SDS011;65084;42.196;25.326;2023-09-19T11:39:04;4.07;;;2.30;;
34805;SDS011;65084;42.196;25.326;2023-09-19T11:41:41;6.90;;;2.40;;
34805;SDS011;65084;42.196;25.326;2023-09-19T11:46:56;3.17;;;2.80;;
34805;SDS011;65084;42.196;25.326;2023-09-19T11:49:26;3.67;;;2.83;;
34805;SDS011;65084;42.196;25.326;2023-09-19T11:51:55;3.50;;;2.42;;
34805;SDS011;65084;42.196;25.326;2023-09-19T11:54:23;6.22;;;2.60;;
34805;SDS011;65084;42.196;25.326;2023-09-19T11:56:55;2.50;;;1.83;;
34805;SDS011;65084;42.196;25.326;2023-09-19T11:59:22;2.75;;;2.55;;
34805;SDS011;65084;42.196;25.326;2023-09-19T12:01:53;2.58;;;2.38;;
34805;SDS011;65084;42.196;25.326;2023-09-19T12:04:31;3.70;;;2.60;;
34805;SDS011;65084;42.196;25.326;2023-09-19T12:07:00;3.28;;;2.13;;
34805;SDS011;65084;42.196;25.326;2023-09-19T12:09:29;2.83;;;2.47;;
34805;SDS011;65084;42.196;25.326;2023-09-19T12:11:58;2.35;;;2.15;;
34805;SDS011;65084;42.196;25.326;2023-09-19T12:14:25;4.30;;;2.45;;
34805;SDS011;65084;42.196;25.326;2023-09-19T12:16:53;2.55;;;2.33;;
34805;SDS011;65084;42.196;25.326;2023-09-19T12:19:21;5.03;;;2.60;;
34805;SDS011;65084;42.196;25.326;2023-09-19T12:21:58;5.22;;;2.20;;
34805;SDS011;65084;42.196;25.326;2023-09-19T12:24:29;5.90;;;2.40;;
34805;SDS011;65084;42.196;25.326;2023-09-19T12:27:02;3.10;;;2.30;;
34805;SDS011;65084;42.196;25.326;2023-09-19T12:29:31;5.57;;;2.65;;
34805;SDS011;65084;42.196;25.326;2023-09-19T12:32:01;3.28;;;2.55;;
34805;SDS011;65084;42.196;25.326;2023-09-19T12:34:31;3.50;;;2.25;;
34805;SDS011;65084;42.196;25.326;2023-09-19T12:37:04;2.72;;;2.47;;
34805;SDS011;65084;42.196;25.326;2023-09-19T12:39:36;6.60;;;3.28;;
34805;SDS011;65084;42.196;25.326;2023-09-19T12:42:05;3.00;;;2.47;;
34805;SDS011;65084;42.196;25.326;2023-09-19T12:44:34;6.55;;;3.00;;
34805;SDS011;65084;42.196;25.326;2023-09-19T12:47:08;2.30;;;2.10;;
34805;SDS011;65084;42.196;25.326;2023-09-19T12:49:35;3.35;;;2.45;;
34805;SDS011;65084;42.196;25.326;2023-09-19T12:52:03;14.77;;;3.40;;
34805;SDS011;65084;42.196;25.326;2023-09-19T12:54:37;3.85;;;2.58;;
34805;SDS011;65084;42.196;25.326;2023-09-19T12:57:06;5.73;;;2.60;;
34805;SDS011;65084;42.196;25.326;2023-09-19T12:59:33;3.47;;;2.50;;
34805;SDS011;65084;42.196;25.326;2023-09-19T13:02:04;4.43;;;2.30;;
34805;SDS011;65084;42.196;25.326;2023-09-19T13:04:39;6.55;;;2.70;;
34805;SDS011;65084;42.196;25.326;2023-09-19T13:07:08;5.53;;;2.30;;
34805;SDS011;65084;42.196;25.326;2023-09-19T13:10:03;2.80;;;2.60;;
34805;SDS011;65084;42.196;25.326;2023-09-19T13:12:37;2.72;;;2.53;;
34805;SDS011;65084;42.196;25.326;2023-09-19T13:15:07;5.32;;;2.45;;
34805;SDS011;65084;42.196;25.326;2023-09-19T13:17:47;3.22;;;2.58;;
34805;SDS011;65084;42.196;25.326;2023-09-19T13:20:21;4.70;;;2.38;;
34805;SDS011;65084;42.196;25.326;2023-09-19T13:22:52;7.80;;;2.50;;
34805;SDS011;65084;42.196;25.326;2023-09-19T13:25:24;2.75;;;2.53;;
34805;SDS011;65084;42.196;25.326;2023-09-19T13:37:06;2.47;;;2.28;;
34805;SDS011;65084;42.196;25.326;2023-09-19T13:39:35;4.28;;;2.35;;
34805;SDS011;65084;42.196;25.326;2023-09-19T13:42:07;3.83;;;2.30;;
34805;SDS011;65084;42.196;25.326;2023-09-19T13:44:37;4.55;;;2.55;;
34805;SDS011;65084;42.196;25.326;2023-09-19T13:47:06;3.65;;;2.75;;
34805;SDS011;65084;42.196;25.326;2023-09-19T13:49:35;3.63;;;2.20;;
34805;SDS011;65084;42.196;25.326;2023-09-19T13:52:03;2.47;;;2.30;;
34805;SDS011;65084;42.196;25.326;2023-09-19T13:54:32;3.50;;;2.67;;
34805;SDS011;65084;42.196;25.326;2023-09-19T13:57:00;2.85;;;2.65;;
34805;SDS011;65084;42.196;25.326;2023-09-19T13:59:27;5.57;;;2.58;;
34805;SDS011;65084;42.196;25.326;2023-09-19T14:01:56;10.68;;;2.70;;
34805;SDS011;65084;42.196;25.326;2023-09-19T14:04:23;5.07;;;2.92;;
34805;SDS011;65084;42.196;25.326;2023-09-19T14:06:50;4.47;;;2.53;;
34805;SDS011;65084;42.196;25.326;2023-09-19T14:09:18;6.93;;;3.22;;
34805;SDS011;65084;42.196;25.326;2023-09-19T14:11:47;3.30;;;2.50;;
34805;SDS011;65084;42.196;25.326;2023-09-19T14:14:17;8.77;;;3.35;;
34805;SDS011;65084;42.196;25.326;2023-09-19T14:16:45;4.05;;;2.40;;
34805;SDS011;65084;42.196;25.326;2023-09-19T14:19:13;3.00;;;2.70;;
34805;SDS011;65084;42.196;25.326;2023-09-19T14:21:41;4.82;;;3.00;;
34805;SDS011;65084;42.196;25.326;2023-09-19T14:24:09;6.15;;;2.97;;
34805;SDS011;65084;42.196;25.326;2023-09-19T14:26:37;4.07;;;2.72;;
34805;SDS011;65084;42.196;25.326;2023-09-19T14:29:05;14.48;;;2.47;;
34805;SDS011;65084;42.196;25.326;2023-09-19T14:31:36;7.43;;;3.20;;
34805;SDS011;65084;42.196;25.326;2023-09-19T14:34:05;4.03;;;2.60;;
34805;SDS011;65084;42.196;25.326;2023-09-19T14:36:35;3.20;;;2.45;;
34805;SDS011;65084;42.196;25.326;2023-09-19T14:39:03;2.83;;;2.40;;
34805;SDS011;65084;42.196;25.326;2023-09-19T14:41:31;9.80;;;3.15;;
34805;SDS011;65084;42.196;25.326;2023-09-19T14:43:58;6.05;;;2.97;;
34805;SDS011;65084;42.196;25.326;2023-09-19T14:46:27;4.97;;;2.58;;
34805;SDS011;65084;42.196;25.326;2023-09-19T14:48:55;3.03;;;2.47;;
34805;SDS011;65084;42.196;25.326;2023-09-19T14:51:24;3.88;;;2.63;;
34805;SDS011;65084;42.196;25.326;2023-09-19T14:53:52;7.43;;;3.33;;
34805;SDS011;65084;42.196;25.326;2023-09-19T14:56:20;4.25;;;3.17;;
34805;SDS011;65084;42.196;25.326;2023-09-19T14:58:47;5.13;;;3.55;;
34805;SDS011;65084;42.196;25.326;2023-09-19T15:01:14;6.70;;;4.07;;
34805;SDS011;65084;42.196;25.326;2023-09-19T15:03:44;3.72;;;3.42;;
34805;SDS011;65084;42.196;25.326;2023-09-19T15:06:12;6.32;;;2.63;;
34805;SDS011;65084;42.196;25.326;2023-09-19T15:08:39;6.70;;;3.05;;
34805;SDS011;65084;42.196;25.326;2023-09-19T15:11:10;4.82;;;3.22;;
34805;SDS011;65084;42.196;25.326;2023-09-19T15:13:38;2.70;;;2.50;;
34805;SDS011;65084;42.196;25.326;2023-09-19T15:16:06;3.28;;;2.50;;